Time;durP1;ratioP1;P1;durP2;ratioP2;P2;SDS_P1;SDS_P2;PMS_P1;PMS_P2;Temp;Humidity;BMP_temperature;BMP_pressure;BME280_temperature;BME280_humidity;BME280_pressure;Samples;Min_cycle;Max_cycle;Signal;HPM_P1;HPM_P2
2022/10/09 00:01:12;;;;;;;19.77;11.60;;;11.60;30.90;;;;;;4980208;28;20182;-87
2022/10/09 00:03:40;;;;;;;15.33;10.60;;;11.70;26.50;;;;;;4981484;28;20607;-85
2022/10/09 00:06:08;;;;;;;17.53;10.90;;;11.80;25.10;;;;;;4979119;28;20188;-88
2022/10/09 00:08:35;;;;;;;16.30;11.20;;;11.70;26.30;;;;;;4980071;28;20180;-86
2022/10/09 00:11:08;;;;;;;19.00;10.00;;;11.70;26.60;;;;;;4979096;28;20176;-87
2022/10/09 00:13:34;;;;;;;16.37;10.20;;;11.70;28.50;;;;;;4978276;28;20210;-86
2022/10/09 00:16:06;;;;;;;13.87;10.50;;;11.70;29.60;;;;;;4978007;28;20176;-86
2022/10/09 00:18:33;;;;;;;17.47;9.93;;;11.60;30.00;;;;;;4977570;28;20207;-87
2022/10/09 00:21:02;;;;;;;17.67;10.10;;;11.80;27.90;;;;;;4992793;28;20239;-87
2022/10/09 00:23:27;;;;;;;17.47;10.53;;;11.80;23.80;;;;;;4998024;28;20166;-84
2022/10/09 00:25:59;;;;;;;17.33;10.17;;;11.80;24.20;;;;;;4995017;28;20192;-87
2022/10/09 00:28:27;;;;;;;19.13;10.70;;;11.70;26.00;;;;;;4986004;28;20186;-88
2022/10/09 00:30:53;;;;;;;15.43;10.03;;;11.60;25.60;;;;;;4980235;28;20172;-88
2022/10/09 00:33:19;;;;;;;16.53;9.97;;;11.50;28.90;;;;;;4980932;28;20649;-85
2022/10/09 00:35:46;;;;;;;16.33;9.80;;;11.50;30.60;;;;;;4980607;28;20184;-87
2022/10/09 00:38:13;;;;;;;16.13;10.50;;;11.60;31.20;;;;;;4978242;28;20294;-86
2022/10/09 00:40:40;;;;;;;18.13;10.90;;;11.50;30.90;;;;;;4966084;28;20206;-87
2022/10/09 00:43:16;;;;;;;18.50;10.37;;;11.50;31.30;;;;;;4981756;28;20255;-86
2022/10/09 00:45:53;;;;;;;17.63;10.27;;;11.50;32.30;;;;;;4980483;28;20215;-88
2022/10/09 00:48:23;;;;;;;17.13;10.43;;;11.60;29.50;;;;;;4980422;28;20186;-85
2022/10/09 00:50:56;;;;;;;17.30;9.07;;;11.60;30.40;;;;;;4971713;28;20180;-86
2022/10/09 00:53:25;;;;;;;15.87;9.70;;;11.60;27.50;;;;;;4980900;28;20183;-87
2022/10/09 00:55:52;;;;;;;14.23;9.10;;;11.40;29.00;;;;;;4979550;28;20262;-87
2022/10/09 00:58:18;;;;;;;15.30;9.00;;;11.60;30.10;;;;;;4976945;28;20210;-87
2022/10/09 01:00:43;;;;;;;18.40;9.50;;;11.50;29.80;;;;;;4978800;28;20171;-86
2022/10/09 01:03:09;;;;;;;21.93;9.60;;;11.70;28.80;;;;;;4978203;28;20238;-87
2022/10/09 01:06:15;;;;;;;13.90;9.43;;;11.60;26.70;;;;;;4979571;28;20180;-89
2022/10/09 01:09:08;;;;;;;15.93;9.20;;;11.60;26.90;;;;;;4969351;28;20183;-87
2022/10/09 01:11:36;;;;;;;16.30;8.97;;;11.30;31.80;;;;;;4964156;28;20240;-87
2022/10/09 01:14:28;;;;;;;15.67;9.47;;;11.30;37.20;;;;;;4978120;28;20191;-87
2022/10/09 01:17:12;;;;;;;14.13;8.53;;;11.40;34.50;;;;;;4978320;28;20180;-87
2022/10/09 01:19:47;;;;;;;19.00;9.20;;;11.30;32.50;;;;;;4978077;28;20226;-88
2022/10/09 01:22:31;;;;;;;16.10;9.73;;;11.20;36.10;;;;;;4977521;28;20179;-86
2022/10/09 01:25:08;;;;;;;15.50;9.40;;;11.20;40.50;;;;;;4977083;28;20198;-86
2022/10/09 01:27:40;;;;;;;13.87;8.70;;;11.20;40.30;;;;;;4977100;28;20550;-88
2022/10/09 01:30:09;;;;;;;15.60;8.53;;;11.30;38.30;;;;;;4977103;28;20262;-87
2022/10/09 01:32:42;;;;;;;15.67;8.80;;;11.30;37.60;;;;;;4977665;28;20175;-88
2022/10/09 01:35:11;;;;;;;15.30;8.03;;;11.40;37.20;;;;;;4976926;28;20628;-86
2022/10/09 01:37:39;;;;;;;15.00;8.63;;;11.40;35.40;;;;;;4977917;28;20274;-87
2022/10/09 01:40:09;;;;;;;16.57;8.57;;;11.40;34.50;;;;;;4962459;28;20224;-88
2022/10/09 01:42:36;;;;;;;14.93;8.57;;;11.40;32.10;;;;;;4982945;28;20179;-86
2022/10/09 01:45:01;;;;;;;11.87;7.93;;;11.50;29.80;;;;;;4978324;28;20180;-87
2022/10/09 01:47:27;;;;;;;13.53;8.80;;;11.40;30.60;;;;;;4977440;28;20203;-88
2022/10/09 01:50:02;;;;;;;15.87;8.77;;;11.70;32.00;;;;;;4977351;28;20183;-87
2022/10/09 01:52:45;;;;;;;15.53;9.10;;;11.40;31.60;;;;;;4977516;28;20195;-87
2022/10/09 01:55:31;;;;;;;15.50;9.13;;;11.40;31.90;;;;;;4977755;28;20232;-88
2022/10/09 01:58:09;;;;;;;15.50;7.93;;;11.40;32.10;;;;;;4977387;28;20171;-89
2022/10/09 02:00:40;;;;;;;18.37;9.00;;;11.40;31.30;;;;;;4976869;28;20176;-86
2022/10/09 02:03:08;;;;;;;14.97;9.30;;;11.40;31.90;;;;;;4977346;28;20199;-86
2022/10/09 02:05:36;;;;;;;14.70;8.67;;;11.50;28.90;;;;;;4976359;28;20218;-85
2022/10/09 02:08:02;;;;;;;13.97;9.13;;;11.50;27.00;;;;;;4984029;28;20274;-86
2022/10/09 02:10:29;;;;;;;13.83;8.93;;;11.30;28.80;;;;;;4985310;28;20182;-87
2022/10/09 02:13:00;;;;;;;15.43;8.80;;;11.30;31.90;;;;;;4977250;28;20179;-87
2022/10/09 02:15:55;;;;;;;13.53;8.47;;;11.30;34.30;;;;;;4977921;28;20179;-87
2022/10/09 02:18:39;;;;;;;14.73;8.83;;;11.20;34.90;;;;;;4977131;28;20195;-89
2022/10/09 02:21:15;;;;;;;14.63;7.93;;;11.30;35.50;;;;;;4984240;28;20249;-85
2022/10/09 02:23:44;;;;;;;14.70;8.10;;;11.20;35.30;;;;;;4996138;28;20175;-86
2022/10/09 02:26:10;;;;;;;15.47;8.53;;;11.10;35.20;;;;;;4996507;28;20191;-85
2022/10/09 02:28:36;;;;;;;18.40;8.90;;;11.20;30.30;;;;;;4998275;28;20263;-86
2022/10/09 02:31:36;;;;;;;14.87;8.80;;;11.40;27.90;;;;;;4993102;28;20163;-87
2022/10/09 02:34:16;;;;;;;14.53;8.30;;;11.30;27.30;;;;;;4994558;28;20198;-82
2022/10/09 02:36:50;;;;;;;15.77;8.87;;;11.20;30.00;;;;;;4998208;28;20179;-81
2022/10/09 02:39:18;;;;;;;15.93;8.67;;;11.20;31.40;;;;;;4996261;28;20214;-84
2022/10/09 02:41:44;;;;;;;14.97;8.43;;;11.20;31.90;;;;;;4982896;28;20179;-86
2022/10/09 02:44:10;;;;;;;14.93;8.57;;;11.20;33.50;;;;;;4976037;28;20237;-88
2022/10/09 02:46:37;;;;;;;14.60;8.00;;;11.20;35.80;;;;;;4982068;28;20183;-86
2022/10/09 02:49:03;;;;;;;12.93;8.27;;;11.20;37.80;;;;;;4981639;28;20186;-87
2022/10/09 02:51:29;;;;;;;13.53;8.33;;;11.20;38.50;;;;;;4977386;28;20195;-88
2022/10/09 02:53:55;;;;;;;11.57;7.50;;;11.20;39.70;;;;;;4976194;28;20171;-87
2022/10/09 02:56:21;;;;;;;15.60;8.93;;;11.20;40.20;;;;;;4980391;28;20171;-87
2022/10/09 02:58:48;;;;;;;16.07;8.50;;;11.40;39.60;;;;;;4979458;28;20680;-86
2022/10/09 03:01:14;;;;;;;15.13;8.27;;;11.30;38.90;;;;;;4978553;28;20238;-86
2022/10/09 03:03:40;;;;;;;16.50;8.37;;;11.40;39.80;;;;;;4981134;28;20179;-87
2022/10/09 03:06:09;;;;;;;20.40;8.60;;;11.40;38.20;;;;;;4991104;28;20295;-85
2022/10/09 03:08:37;;;;;;;13.57;7.77;;;11.60;35.50;;;;;;4981497;28;20175;-87
2022/10/09 03:11:05;;;;;;;14.90;7.57;;;11.50;33.10;;;;;;4978485;28;20172;-88
2022/10/09 03:13:31;;;;;;;14.03;7.43;;;11.60;30.00;;;;;;4978249;28;20182;-87
2022/10/09 03:16:08;;;;;;;14.07;7.63;;;11.50;28.90;;;;;;4978799;28;20262;-86
2022/10/09 03:18:37;;;;;;;16.00;7.50;;;11.50;30.30;;;;;;4978237;28;20211;-87
2022/10/09 03:21:08;;;;;;;11.50;6.53;;;11.50;30.20;;;;;;4981830;28;20196;-87
2022/10/09 03:23:43;;;;;;;12.87;7.60;;;11.50;30.60;;;;;;4979532;28;20182;-87
2022/10/09 03:26:14;;;;;;;14.67;7.60;;;11.60;28.30;;;;;;4978213;28;20680;-89
2022/10/09 03:28:42;;;;;;;13.07;7.27;;;11.50;25.30;;;;;;4979116;28;20259;-86
2022/10/09 03:31:09;;;;;;;12.43;6.83;;;11.40;26.00;;;;;;4978557;28;20541;-86
2022/10/09 03:33:35;;;;;;;13.63;7.37;;;11.40;27.90;;;;;;4978076;28;20222;-86
2022/10/09 03:36:05;;;;;;;13.93;7.07;;;11.40;29.30;;;;;;4978279;28;20244;-84
2022/10/09 03:38:32;;;;;;;11.10;6.70;;;11.50;28.60;;;;;;4978017;28;20271;-86
2022/10/09 03:40:58;;;;;;;11.80;6.90;;;11.40;29.20;;;;;;4988852;28;20164;-86
2022/10/09 03:43:24;;;;;;;11.13;6.20;;;11.30;32.40;;;;;;5000422;28;20184;-85
2022/10/09 03:45:50;;;;;;;14.13;6.10;;;11.40;32.70;;;;;;5001142;28;20194;-85
2022/10/09 03:48:21;;;;;;;11.70;5.70;;;11.40;32.80;;;;;;4997133;28;20156;-84
2022/10/09 03:50:47;;;;;;;12.87;5.67;;;11.50;32.40;;;;;;5016275;28;20176;-85
2022/10/09 03:53:16;;;;;;;13.27;6.63;;;11.50;32.40;;;;;;4998510;28;20183;-85
2022/10/09 03:55:45;;;;;;;11.57;5.43;;;11.50;31.70;;;;;;4997670;28;20203;-83
2022/10/09 03:58:21;;;;;;;11.03;5.50;;;11.30;32.50;;;;;;5000823;28;20168;-84
2022/10/09 04:00:49;;;;;;;13.63;5.63;;;11.40;31.80;;;;;;5000560;28;20275;-85
2022/10/09 04:03:17;;;;;;;10.13;5.83;;;11.30;30.50;;;;;;4994887;28;20180;-86
2022/10/09 04:05:42;;;;;;;17.00;6.30;;;11.10;41.30;;;;;;4984443;28;20171;-87
2022/10/09 04:08:09;;;;;;;13.17;6.60;;;11.20;43.90;;;;;;4982708;28;20175;-84
2022/10/09 04:10:36;;;;;;;13.67;6.80;;;11.30;43.10;;;;;;4982884;28;20175;-87
2022/10/09 04:13:05;;;;;;;13.80;6.83;;;11.40;41.40;;;;;;4980459;28;20258;-87
2022/10/09 04:15:34;;;;;;;10.73;5.50;;;11.40;39.20;;;;;;4978331;28;20536;-87
2022/10/09 04:18:06;;;;;;;13.23;5.60;;;11.40;39.40;;;;;;4978583;28;20529;-85
2022/10/09 04:20:32;;;;;;;14.77;5.37;;;11.40;39.10;;;;;;4978916;28;20207;-86
2022/10/09 04:23:00;;;;;;;7.30;4.77;;;11.40;38.60;;;;;;4978217;28;20167;-87
2022/10/09 04:25:29;;;;;;;11.80;5.50;;;11.40;36.70;;;;;;4978465;28;20791;-86
2022/10/09 04:27:54;;;;;;;11.60;6.23;;;11.40;35.30;;;;;;4978178;28;20180;-87
2022/10/09 04:30:20;;;;;;;10.13;5.90;;;11.40;32.10;;;;;;4982006;28;20247;-86
2022/10/09 04:32:46;;;;;;;13.60;6.27;;;11.50;30.60;;;;;;4983207;28;20552;-86
2022/10/09 04:35:12;;;;;;;11.33;6.20;;;11.50;26.80;;;;;;4980662;28;20179;-87
2022/10/09 04:37:39;;;;;;;12.83;6.07;;;11.50;24.60;;;;;;4978602;28;20230;-86
2022/10/09 04:40:05;;;;;;;15.20;6.60;;;11.40;24.00;;;;;;4978250;28;20559;-86
2022/10/09 04:42:31;;;;;;;14.10;6.40;;;11.50;22.70;;;;;;4978241;28;20195;-87
2022/10/09 04:44:57;;;;;;;12.33;6.80;;;11.50;21.90;;;;;;4977994;28;20307;-89
2022/10/09 04:47:23;;;;;;;11.77;5.93;;;11.60;22.60;;;;;;4985332;28;20176;-86
2022/10/09 04:49:48;;;;;;;12.40;5.87;;;11.40;24.30;;;;;;4989406;28;20714;-87
2022/10/09 04:52:15;;;;;;;10.47;5.53;;;11.40;26.10;;;;;;4980299;28;20695;-88
2022/10/09 04:54:41;;;;;;;11.90;6.10;;;11.40;23.30;;;;;;4982180;28;20186;-89
2022/10/09 04:57:06;;;;;;;9.97;5.67;;;11.50;24.10;;;;;;4979222;28;20547;-87
2022/10/09 04:59:32;;;;;;;10.37;5.40;;;11.30;25.60;;;;;;4961610;28;20746;-85
2022/10/09 05:01:58;;;;;;;9.90;5.20;;;11.30;27.70;;;;;;4986099;28;20603;-87
2022/10/09 05:04:23;;;;;;;13.30;5.50;;;11.30;28.90;;;;;;4983491;28;20180;-88
2022/10/09 05:06:49;;;;;;;11.43;5.33;;;11.30;28.50;;;;;;4978009;28;20188;-87
2022/10/09 05:09:16;;;;;;;11.07;5.37;;;11.30;27.10;;;;;;4978265;28;20239;-86
2022/10/09 05:11:41;;;;;;;11.93;5.47;;;11.20;28.70;;;;;;4977965;28;20659;-88
2022/10/09 05:14:07;;;;;;;12.57;4.90;;;11.10;31.00;;;;;;4977952;28;20176;-88
2022/10/09 05:16:34;;;;;;;9.90;4.97;;;11.10;32.10;;;;;;4977000;28;20659;-86
2022/10/09 05:18:59;;;;;;;11.63;5.70;;;11.10;32.60;;;;;;4981152;28;20242;-85
2022/10/09 05:21:27;;;;;;;13.30;5.63;;;11.30;29.50;;;;;;4984525;28;20630;-85
2022/10/09 05:23:53;;;;;;;11.57;4.87;;;11.40;26.30;;;;;;4978539;28;20187;-85
2022/10/09 05:26:21;;;;;;;17.07;5.63;;;11.20;25.00;;;;;;4977640;28;20644;-85
2022/10/09 05:28:48;;;;;;;10.50;4.83;;;11.10;26.70;;;;;;4979757;28;20616;-86
2022/10/09 05:31:25;;;;;;;13.33;5.83;;;11.10;27.60;;;;;;4995606;28;20175;-83
2022/10/09 05:33:52;;;;;;;7.07;5.10;;;11.40;27.20;;;;;;4999369;28;20167;-84
2022/10/09 05:36:19;;;;;;;11.07;5.40;;;11.20;26.40;;;;;;4995614;28;20194;-84
2022/10/09 05:38:45;;;;;;;10.50;5.27;;;11.30;25.30;;;;;;4997364;28;20226;-84
2022/10/09 05:41:13;;;;;;;11.23;4.83;;;11.30;24.70;;;;;;4999074;28;20226;-84
2022/10/09 05:43:41;;;;;;;10.20;5.40;;;11.20;26.20;;;;;;4995391;28;20652;-87
2022/10/09 05:46:22;;;;;;;14.10;6.17;;;11.20;26.00;;;;;;4982669;28;20175;-85
2022/10/09 05:48:53;;;;;;;11.77;6.27;;;11.20;27.80;;;;;;4981974;28;20172;-87
2022/10/09 05:51:41;;;;;;;13.17;6.30;;;11.10;29.10;;;;;;4979389;28;20171;-86
2022/10/09 05:54:12;;;;;;;8.67;5.17;;;11.00;34.00;;;;;;4985177;28;20183;-84
2022/10/09 05:56:38;;;;;;;11.10;4.90;;;11.10;32.60;;;;;;4983519;28;20176;-86
2022/10/09 05:59:06;;;;;;;11.77;5.30;;;11.10;27.80;;;;;;4982102;28;20235;-85
2022/10/09 06:01:36;;;;;;;7.97;4.07;;;11.20;28.20;;;;;;4992721;28;20191;-86
2022/10/09 06:04:03;;;;;;;12.57;5.40;;;11.10;28.00;;;;;;4977143;28;20183;-87
2022/10/09 06:06:34;;;;;;;12.87;5.20;;;11.20;27.20;;;;;;4992190;28;20223;-87
2022/10/09 06:08:59;;;;;;;10.83;5.17;;;11.20;26.50;;;;;;4992099;28;20758;-87
2022/10/09 06:11:30;;;;;;;11.93;4.97;;;11.20;24.90;;;;;;4989141;28;20187;-86
2022/10/09 06:13:59;;;;;;;12.73;5.50;;;11.40;26.60;;;;;;4978069;28;20186;-87
2022/10/09 06:16:28;;;;;;;13.80;5.17;;;11.20;26.80;;;;;;4962475;28;20203;-86
2022/10/09 06:18:54;;;;;;;13.70;5.13;;;11.20;28.60;;;;;;4980220;28;20231;-87
2022/10/09 06:21:25;;;;;;;13.73;6.40;;;11.30;28.10;;;;;;4979928;28;20199;-85
2022/10/09 06:23:53;;;;;;;11.40;5.10;;;11.20;28.30;;;;;;4980067;28;20179;-85
2022/10/09 06:26:20;;;;;;;11.90;4.90;;;11.30;25.30;;;;;;4977755;28;20652;-87
2022/10/09 06:28:48;;;;;;;13.97;4.40;;;11.30;23.20;;;;;;4987425;28;20192;-88
2022/10/09 06:31:19;;;;;;;10.23;4.33;;;11.40;18.60;;;;;;4963262;28;20180;-87
2022/10/09 06:33:46;;;;;;;8.87;4.00;;;11.40;17.90;;;;;;4980863;28;20258;-88
2022/10/09 06:36:14;;;;;;;10.23;4.17;;;11.40;16.20;;;;;;4977584;28;20187;-88
2022/10/09 06:38:43;;;;;;;9.93;4.13;;;11.40;16.60;;;;;;4976423;28;20203;-86
2022/10/09 06:41:11;;;;;;;7.20;3.77;;;11.40;13.30;;;;;;4976316;28;20183;-90
2022/10/09 06:43:58;;;;;;;9.87;4.07;;;11.50;12.90;;;;;;4981040;28;20176;-88
2022/10/09 06:46:26;;;;;;;8.10;3.90;;;11.50;11.10;;;;;;4977282;28;20266;-86
2022/10/09 06:48:52;;;;;;;11.37;4.47;;;11.50;8.00;;;;;;4986378;28;20245;-89
2022/10/09 06:51:21;;;;;;;10.40;4.53;;;11.70;4.60;;;;;;4995501;28;20191;-89
2022/10/09 06:53:49;;;;;;;9.23;3.90;;;11.60;2.70;;;;;;4981669;28;20183;-88
2022/10/09 06:56:15;;;;;;;12.60;4.23;;;11.60;5.00;;;;;;4997360;28;20180;-85
2022/10/09 06:58:41;;;;;;;11.50;4.37;;;11.70;4.90;;;;;;4998021;28;20223;-87
2022/10/09 07:01:13;;;;;;;9.50;4.03;;;11.90;5.90;;;;;;4995632;28;20203;-87
2022/10/09 07:03:41;;;;;;;8.03;4.10;;;11.80;5.40;;;;;;4995410;28;20163;-86
2022/10/09 07:06:17;;;;;;;7.03;3.77;;;11.90;4.80;;;;;;4994128;28;20203;-88
2022/10/09 07:08:46;;;;;;;8.00;3.77;;;12.00;4.20;;;;;;4996270;28;20190;-86
2022/10/09 07:11:21;;;;;;;9.67;4.23;;;12.10;1.60;;;;;;4990949;28;20203;-86
2022/10/09 07:13:54;;;;;;;8.27;4.00;;;12.20;1.00;;;;;;4992884;28;20171;-89
2022/10/09 07:16:24;;;;;;;7.57;3.30;;;12.40;1.00;;;;;;4992860;28;20187;-87
2022/10/09 07:18:52;;;;;;;7.73;4.30;;;12.30;1.00;;;;;;4993083;28;20227;-88
2022/10/09 07:21:19;;;;;;;8.63;3.30;;;12.40;1.00;;;;;;4991264;28;20202;-88
2022/10/09 07:23:47;;;;;;;6.83;3.57;;;12.70;1.00;;;;;;4988855;28;20173;-87
2022/10/09 07:26:20;;;;;;;9.57;3.37;;;12.50;1.00;;;;;;4981594;28;20206;-86
2022/10/09 07:28:49;;;;;;;8.63;3.50;;;12.60;1.00;;;;;;4962440;28;20198;-88
2022/10/09 07:31:18;;;;;;;10.17;4.00;;;12.70;1.00;;;;;;4983506;28;20160;-88
2022/10/09 07:33:48;;;;;;;9.57;3.90;;;12.90;1.00;;;;;;4987017;28;20183;-88
2022/10/09 07:36:14;;;;;;;9.53;3.43;;;12.80;1.00;;;;;;4979594;28;20532;-87
2022/10/09 07:38:52;;;;;;;8.17;3.00;;;13.10;1.00;;;;;;4976184;28;20217;-86
2022/10/09 07:41:19;;;;;;;5.63;2.60;;;13.20;1.00;;;;;;4981533;28;20537;-87
2022/10/09 07:43:47;;;;;;;8.00;2.03;;;13.20;1.00;;;;;;4980362;28;20633;-86
2022/10/09 07:46:15;;;;;;;5.50;1.90;;;13.20;1.00;;;;;;4981269;28;20184;-87
2022/10/09 07:48:41;;;;;;;6.27;1.83;;;13.40;1.00;;;;;;4980705;28;20175;-87
2022/10/09 07:51:16;;;;;;;7.07;2.87;;;13.30;1.00;;;;;;4980059;28;20551;-87
2022/10/09 07:53:42;;;;;;;5.77;2.13;;;13.40;1.00;;;;;;4980503;28;20175;-86
2022/10/09 07:56:17;;;;;;;8.43;2.60;;;13.50;1.00;;;;;;4985276;28;20172;-86
2022/10/09 07:58:47;;;;;;;7.53;2.63;;;13.60;1.00;;;;;;4982653;28;20216;-85
2022/10/09 08:01:12;;;;;;;5.83;2.40;;;13.80;1.00;;;;;;4981915;28;20181;-89
2022/10/09 08:03:38;;;;;;;6.13;2.03;;;14.00;1.00;;;;;;4982253;28;20697;-86
2022/10/09 08:06:05;;;;;;;6.77;2.73;;;14.00;1.00;;;;;;4988194;28;20225;-89
2022/10/09 08:08:30;;;;;;;5.10;2.43;;;14.10;1.00;;;;;;4981260;28;20182;-85
2022/10/09 08:10:56;;;;;;;6.50;2.33;;;14.20;1.00;;;;;;4999169;28;20167;-85
2022/10/09 08:13:22;;;;;;;6.20;2.40;;;14.40;1.00;;;;;;4992125;28;20176;-87
2022/10/09 08:15:48;;;;;;;7.93;2.27;;;14.30;1.00;;;;;;4985482;28;20193;-90
2022/10/09 08:18:15;;;;;;;8.80;2.57;;;14.40;1.00;;;;;;4983399;28;20172;-88
2022/10/09 08:20:41;;;;;;;11.63;3.60;;;14.60;1.00;;;;;;4981448;28;20223;-85
2022/10/09 08:23:07;;;;;;;5.67;2.33;;;14.70;1.00;;;;;;4984291;28;20171;-87
2022/10/09 08:25:35;;;;;;;5.27;2.13;;;14.70;1.00;;;;;;4984493;28;20316;-87
2022/10/09 08:28:01;;;;;;;7.10;2.43;;;14.80;1.00;;;;;;4981837;28;20192;-88
2022/10/09 08:30:27;;;;;;;6.33;1.97;;;14.90;1.00;;;;;;4982691;28;20179;-86
2022/10/09 08:32:54;;;;;;;5.20;1.77;;;14.70;1.00;;;;;;4983575;28;20179;-86
2022/10/09 08:35:20;;;;;;;5.83;2.27;;;15.00;1.00;;;;;;4983086;28;20278;-86
2022/10/09 08:37:48;;;;;;;7.37;3.37;;;14.80;1.00;;;;;;4983652;28;20179;-86
2022/10/09 08:40:28;;;;;;;9.67;3.03;;;14.90;1.00;;;;;;4983730;28;20211;-86
2022/10/09 08:43:02;;;;;;;5.87;2.60;;;15.10;1.00;;;;;;4981637;28;20176;-88
2022/10/09 08:45:30;;;;;;;8.13;3.17;;;15.20;1.00;;;;;;4980052;28;20178;-86
2022/10/09 08:48:01;;;;;;;8.60;2.73;;;15.30;1.00;;;;;;4979994;28;20172;-86
2022/10/09 08:50:33;;;;;;;6.43;2.50;;;15.50;1.00;;;;;;4983555;28;20172;-88
2022/10/09 08:53:27;;;;;;;5.33;2.70;;;15.50;1.00;;;;;;4985413;28;20168;-89
2022/10/09 08:55:55;;;;;;;6.03;2.70;;;15.60;1.00;;;;;;4982633;28;20183;-86
2022/10/09 08:58:25;;;;;;;8.07;3.47;;;15.60;1.00;;;;;;4977783;28;20221;-89
2022/10/09 09:00:57;;;;;;;6.97;3.27;;;15.70;1.00;;;;;;4987218;28;20180;-85
2022/10/09 09:03:48;;;;;;;9.57;2.93;;;15.70;1.00;;;;;;4997551;28;20177;-86
2022/10/09 09:06:32;;;;;;;6.17;2.33;;;15.90;1.00;;;;;;4986488;28;20198;-86
2022/10/09 09:09:26;;;;;;;5.03;2.27;;;16.00;1.00;;;;;;4991910;28;20238;-87
2022/10/09 09:11:57;;;;;;;4.77;2.20;;;16.10;1.00;;;;;;4985022;28;20633;-87
2022/10/09 09:14:57;;;;;;;6.00;2.10;;;16.00;1.00;;;;;;4983518;28;20175;-88
2022/10/09 09:17:45;;;;;;;7.77;2.53;;;16.10;1.00;;;;;;4982841;28;20242;-88
2022/10/09 09:20:29;;;;;;;8.33;3.27;;;16.30;1.00;;;;;;4984084;28;20219;-87
2022/10/09 09:22:59;;;;;;;9.23;3.60;;;16.20;1.00;;;;;;4981553;28;20173;-88
2022/10/09 09:25:34;;;;;;;7.43;2.70;;;16.40;1.00;;;;;;4987587;28;20195;-86
2022/10/09 09:28:25;;;;;;;8.83;3.00;;;16.60;1.00;;;;;;4977182;28;20179;-87
2022/10/09 09:31:01;;;;;;;5.07;2.30;;;16.70;1.00;;;;;;5008811;28;20544;-88
2022/10/09 09:33:41;;;;;;;6.77;2.27;;;17.00;1.00;;;;;;4986372;28;20258;-88
2022/10/09 09:36:29;;;;;;;8.20;2.53;;;17.00;1.00;;;;;;4984889;28;20175;-88
2022/10/09 09:38:55;;;;;;;6.70;2.23;;;17.00;1.00;;;;;;4983091;28;20211;-88
2022/10/09 09:41:21;;;;;;;5.03;2.23;;;16.90;1.00;;;;;;4983888;28;20323;-88
2022/10/09 09:43:56;;;;;;;6.13;2.77;;;16.90;1.00;;;;;;4990805;28;20181;-87
2022/10/09 09:46:29;;;;;;;6.00;2.57;;;16.80;1.00;;;;;;4992247;28;20176;-89
2022/10/09 09:48:55;;;;;;;7.37;2.67;;;16.80;1.00;;;;;;4991337;28;20214;-89
2022/10/09 09:51:30;;;;;;;7.27;2.90;;;16.80;1.00;;;;;;4991387;28;20177;-89
2022/10/09 09:54:02;;;;;;;8.90;4.30;;;16.90;1.00;;;;;;4986530;28;20548;-88
2022/10/09 09:56:39;;;;;;;9.53;4.47;;;17.00;1.00;;;;;;4985712;28;20180;-87
2022/10/09 09:59:06;;;;;;;5.27;2.77;;;16.90;1.00;;;;;;4984659;28;20674;-87
2022/10/09 10:01:33;;;;;;;6.37;2.90;;;17.20;1.00;;;;;;4984827;28;20173;-87
2022/10/09 10:04:02;;;;;;;6.63;3.07;;;17.10;1.00;;;;;;4987890;28;20175;-89
2022/10/09 10:06:32;;;;;;;6.53;2.50;;;16.90;1.00;;;;;;4990309;28;20179;-88
2022/10/09 10:09:04;;;;;;;6.50;2.47;;;16.70;1.00;;;;;;4994500;28;20198;-86
2022/10/09 10:11:33;;;;;;;5.77;2.50;;;16.70;1.00;;;;;;4993092;28;20185;-89
2022/10/09 10:14:51;;;;;;;4.97;2.80;;;16.90;1.00;;;;;;4994986;28;20187;-86
2022/10/09 10:17:26;;;;;;;6.77;2.70;;;17.00;1.00;;;;;;4980704;28;20181;-88
2022/10/09 10:19:52;;;;;;;5.03;2.30;;;17.20;1.00;;;;;;4994486;28;20239;-86
2022/10/09 10:22:45;;;;;;;4.93;2.33;;;17.10;1.00;;;;;;4990629;28;20187;-89
2022/10/09 10:25:17;;;;;;;6.40;2.50;;;17.30;1.00;;;;;;4967836;28;20211;-89
2022/10/09 10:27:44;;;;;;;5.73;2.57;;;17.20;1.00;;;;;;4984151;28;20182;-89
2022/10/09 10:30:15;;;;;;;7.67;2.90;;;17.40;1.00;;;;;;4985108;28;20230;-88
2022/10/09 10:33:04;;;;;;;4.60;2.60;;;17.50;1.00;;;;;;4966912;28;20185;-88
2022/10/09 10:35:39;;;;;;;6.63;2.70;;;17.40;1.00;;;;;;4980295;28;20636;-89
2022/10/09 10:38:17;;;;;;;6.57;2.60;;;17.50;1.00;;;;;;4979366;28;20175;-88
2022/10/09 10:40:46;;;;;;;8.33;2.70;;;17.40;1.00;;;;;;4980525;28;20667;-87
2022/10/09 10:43:46;;;;;;;7.17;2.77;;;17.40;1.00;;;;;;4978752;28;20178;-90
2022/10/09 10:46:22;;;;;;;7.73;2.57;;;17.60;1.00;;;;;;4978069;28;20176;-89
2022/10/09 10:48:49;;;;;;;8.03;4.50;;;17.70;1.00;;;;;;4977262;28;20263;-88
2022/10/09 10:51:41;;;;;;;8.13;3.63;;;17.90;1.00;;;;;;4977768;28;20275;-90
2022/10/09 10:54:20;;;;;;;7.27;2.90;;;17.90;1.00;;;;;;4981012;28;20688;-90
2022/10/09 10:57:23;;;;;;;7.73;3.00;;;18.10;1.00;;;;;;4981810;28;20214;-89
2022/10/09 11:00:11;;;;;;;6.17;3.17;;;18.10;1.00;;;;;;4982209;28;20227;-89
2022/10/09 11:02:55;;;;;;;9.37;3.23;;;18.30;1.00;;;;;;4963558;28;20180;-88
2022/10/09 11:05:26;;;;;;;6.67;2.90;;;18.50;1.00;;;;;;4979876;28;20196;-89
2022/10/09 11:07:52;;;;;;;7.90;2.83;;;18.50;1.00;;;;;;4978107;28;20300;-88
2022/10/09 11:10:18;;;;;;;7.90;4.00;;;18.50;1.00;;;;;;4981297;28;20228;-88
2022/10/09 11:12:58;;;;;;;11.57;5.20;;;18.30;99.90;;;;;;4982327;28;20180;-89
2022/10/09 11:15:46;;;;;;;8.93;3.23;;;18.30;99.90;;;;;;4988161;28;20178;-85
2022/10/09 11:18:39;;;;;;;8.30;3.03;;;18.20;99.90;;;;;;4990251;28;20185;-88
2022/10/09 11:21:19;;;;;;;6.93;2.67;;;18.20;1.00;;;;;;4983107;28;20274;-87
2022/10/09 11:24:27;;;;;;;6.00;2.90;;;18.10;1.00;;;;;;4979582;28;20188;-87
2022/10/09 11:27:19;;;;;;;7.33;3.13;;;18.10;1.00;;;;;;4976216;28;20203;-86
2022/10/09 11:29:56;;;;;;;4.60;1.70;;;18.20;99.90;;;;;;4983338;28;20174;-88
2022/10/09 11:32:37;;;;;;;6.37;2.10;;;18.10;99.90;;;;;;4983109;28;20169;-89
2022/10/09 11:35:19;;;;;;;5.93;1.93;;;18.20;99.90;;;;;;4982730;28;20270;-88
2022/10/09 11:38:02;;;;;;;6.07;2.23;;;18.10;99.90;;;;;;4982059;28;20182;-90
2022/10/09 11:40:39;;;;;;;5.00;2.07;;;18.10;99.90;;;;;;4980179;28;20251;-89
2022/10/09 11:43:24;;;;;;;4.17;1.73;;;18.30;99.90;;;;;;4986074;28;20194;-86
2022/10/09 11:46:23;;;;;;;6.33;2.10;;;18.20;99.90;;;;;;4987419;28;20187;-85
2022/10/09 11:49:08;;;;;;;4.80;2.13;;;18.30;99.90;;;;;;4982167;28;20290;-87
2022/10/09 11:52:10;;;;;;;5.30;1.80;;;18.20;99.90;;;;;;4981444;28;20186;-87
2022/10/09 11:54:36;;;;;;;6.73;2.07;;;18.30;99.90;;;;;;4963531;28;20688;-90
2022/10/09 11:57:04;;;;;;;6.73;2.60;;;18.40;99.90;;;;;;4982683;28;20209;-89
2022/10/09 11:59:40;;;;;;;7.53;2.50;;;18.50;99.90;;;;;;4989275;28;20196;-87
2022/10/09 12:02:25;;;;;;;7.00;3.03;;;18.50;99.90;;;;;;4984988;28;20191;-88
2022/10/09 12:04:53;;;;;;;5.80;2.20;;;18.70;99.90;;;;;;4980512;28;20187;-89
2022/10/09 12:07:45;;;;;;;7.43;2.30;;;19.00;99.90;;;;;;4980300;28;20188;-87
2022/10/09 12:10:24;;;;;;;6.17;2.03;;;18.80;99.90;;;;;;4979326;28;20198;-87
2022/10/09 12:13:03;;;;;;;4.43;1.93;;;18.90;99.90;;;;;;4979861;28;20236;-88
2022/10/09 12:15:39;;;;;;;4.80;1.90;;;18.90;14.30;;;;;;4981079;28;20177;-87
2022/10/09 12:18:24;;;;;;;5.87;2.13;;;18.90;1.00;;;;;;4981219;28;20551;-87
2022/10/09 12:20:53;;;;;;;5.67;2.60;;;19.10;1.00;;;;;;4986602;28;20257;-87
2022/10/09 12:23:23;;;;;;;7.67;2.40;;;19.40;1.00;;;;;;4984895;28;20178;-88
2022/10/09 12:25:52;;;;;;;6.00;2.37;;;19.50;1.00;;;;;;4983719;28;20193;-86
2022/10/09 12:28:40;;;;;;;5.57;2.90;;;19.50;1.00;;;;;;4983528;28;20213;-87
2022/10/09 12:31:25;;;;;;;8.00;4.60;;;19.60;1.00;;;;;;4983167;28;20265;-87
2022/10/09 12:33:55;;;;;;;6.47;2.50;;;19.60;1.00;;;;;;4982315;28;20186;-87
2022/10/09 12:36:24;;;;;;;9.30;3.20;;;19.60;1.00;;;;;;4986242;28;20240;-86
2022/10/09 12:38:50;;;;;;;5.97;1.83;;;19.60;1.00;;;;;;4987504;28;20236;-84
2022/10/09 12:41:21;;;;;;;5.53;1.63;;;19.60;1.00;;;;;;4989971;28;20181;-85
2022/10/09 12:43:52;;;;;;;4.67;1.53;;;19.50;99.90;;;;;;4988272;28;20188;-85
2022/10/09 12:46:30;;;;;;;4.23;2.10;;;19.40;22.40;;;;;;4985182;28;20276;-86
2022/10/09 12:48:59;;;;;;;5.60;2.33;;;19.80;62.40;;;;;;4977700;28;20190;-85
2022/10/09 12:51:32;;;;;;;5.00;1.90;;;19.80;1.00;;;;;;4985240;28;20163;-85
2022/10/09 12:53:58;;;;;;;4.43;2.33;;;19.70;78.30;;;;;;4979477;28;20178;-86
2022/10/09 12:56:30;;;;;;;4.67;2.07;;;19.70;1.00;;;;;;4976915;28;20272;-87
2022/10/09 12:58:57;;;;;;;4.40;2.10;;;19.60;1.00;;;;;;4983748;28;20547;-86
2022/10/09 13:01:23;;;;;;;4.40;1.80;;;19.40;99.90;;;;;;4991208;28;20174;-86
2022/10/09 13:03:59;;;;;;;4.33;1.90;;;19.40;99.90;;;;;;4987459;28;20170;-86
2022/10/09 13:06:43;;;;;;;5.00;2.03;;;19.30;99.90;;;;;;4978059;28;20167;-87
2022/10/09 13:09:21;;;;;;;6.17;2.33;;;19.40;99.90;;;;;;4977804;28;20284;-85
2022/10/09 13:12:13;;;;;;;6.80;2.60;;;19.60;1.00;;;;;;4980069;28;20536;-87